createdAt,value
2022-09-22T00:01:35.055Z,99.90
2022-09-22T00:04:06.104Z,99.90
2022-09-22T00:06:39.438Z,99.90
2022-09-22T00:09:10.547Z,99.90
2022-09-22T00:11:42.576Z,99.90
2022-09-22T00:14:16.331Z,99.90
2022-09-22T00:16:50.938Z,99.90
2022-09-22T00:19:23.997Z,99.90
2022-09-22T00:21:51.932Z,99.90
2022-09-22T00:24:22.736Z,99.90
2022-09-22T00:26:51.320Z,99.90
2022-09-22T00:29:19.013Z,99.90
2022-09-22T00:31:46.562Z,99.90
2022-09-22T00:34:17.213Z,99.90
2022-09-22T00:36:45.306Z,99.90
2022-09-22T00:39:13.888Z,99.90
2022-09-22T00:41:44.933Z,99.90
2022-09-22T00:44:21.141Z,99.90
2022-09-22T00:46:55.001Z,99.90
2022-09-22T00:49:40.120Z,99.90
2022-09-22T00:52:08.469Z,99.90
2022-09-22T00:54:36.098Z,99.90
2022-09-22T00:57:09.959Z,99.90
2022-09-22T00:59:38.043Z,99.90
2022-09-22T01:02:05.585Z,99.90
2022-09-22T01:04:32.935Z,99.90
2022-09-22T01:07:02.135Z,99.90
2022-09-22T01:09:33.185Z,99.90
2022-09-22T01:12:02.902Z,99.90
2022-09-22T01:15:03.756Z,99.90
2022-09-22T01:17:56.701Z,99.90
2022-09-22T01:20:30.282Z,99.90
2022-09-22T01:23:00.587Z,99.90
2022-09-22T01:25:36.792Z,99.90
2022-09-22T01:28:22.561Z,99.90
2022-09-22T01:31:01.938Z,99.90
2022-09-22T01:33:48.358Z,99.90
2022-09-22T01:36:21.364Z,99.90
2022-09-22T01:39:19.321Z,99.90
2022-09-22T01:42:13.617Z,99.90
2022-09-22T01:44:49.913Z,99.90
2022-09-22T01:47:31.982Z,99.90
2022-09-22T01:50:05.402Z,99.90
2022-09-22T01:52:35.191Z,99.90
2022-09-22T01:55:27.942Z,99.90
2022-09-22T01:58:02.910Z,99.90
2022-09-22T02:00:30.648Z,99.90
2022-09-22T02:03:11.919Z,99.90
2022-09-22T02:05:48.112Z,99.90
2022-09-22T02:08:41.659Z,99.90
2022-09-22T02:11:13.942Z,99.90
2022-09-22T02:13:42.800Z,99.90
2022-09-22T02:16:14.819Z,99.90
2022-09-22T02:19:02.832Z,99.90
2022-09-22T02:21:40.642Z,99.90
2022-09-22T02:24:25.582Z,99.90
2022-09-22T02:26:53.750Z,99.90
2022-09-22T02:29:22.797Z,99.90
2022-09-22T02:31:52.076Z,99.90
2022-09-22T02:34:19.424Z,99.90
2022-09-22T02:37:01.700Z,99.90
2022-09-22T02:40:04.416Z,99.90
2022-09-22T02:42:34.225Z,99.90
2022-09-22T02:45:15.348Z,99.90
2022-09-22T02:47:57.415Z,99.90
2022-09-22T02:50:27.248Z,99.90
2022-09-22T02:53:01.420Z,99.90
2022-09-22T02:55:28.813Z,99.90
2022-09-22T02:57:56.569Z,99.90
2022-09-22T03:00:23.983Z,99.90
2022-09-22T03:02:51.186Z,99.90
2022-09-22T03:05:18.524Z,99.90
2022-09-22T03:07:45.682Z,99.90
2022-09-22T03:10:12.932Z,99.90
2022-09-22T03:13:02.442Z,99.90
2022-09-22T03:15:30.217Z,99.90
2022-09-22T03:17:57.598Z,99.90
2022-09-22T03:20:24.924Z,99.90
2022-09-22T03:22:52.375Z,99.90
2022-09-22T03:25:19.628Z,99.90
2022-09-22T03:27:48.013Z,99.90
2022-09-22T03:30:15.221Z,99.90
2022-09-22T03:32:42.530Z,99.90
2022-09-22T03:35:10.074Z,99.90
2022-09-22T03:37:37.361Z,99.90
2022-09-22T03:40:05.410Z,99.90
2022-09-22T03:42:35.194Z,99.90
2022-09-22T03:45:04.437Z,99.90
2022-09-22T03:47:32.265Z,99.90
2022-09-22T03:49:59.496Z,99.90
2022-09-22T03:52:27.503Z,99.90
2022-09-22T03:54:54.755Z,99.90
2022-09-22T03:57:22.136Z,99.90
2022-09-22T03:59:49.381Z,99.90
2022-09-22T04:02:17.121Z,99.90
2022-09-22T04:04:44.609Z,99.90
2022-09-22T04:07:12.014Z,99.90
2022-09-22T04:09:39.997Z,99.90
2022-09-22T04:12:07.539Z,99.90
2022-09-22T04:14:34.763Z,99.90
2022-09-22T04:17:02.199Z,99.90
2022-09-22T04:19:29.515Z,99.90
2022-09-22T04:21:57.492Z,99.90
2022-09-22T04:24:24.943Z,99.90
2022-09-22T04:27:15.559Z,99.90
2022-09-22T04:29:39.947Z,99.90
2022-09-22T04:32:07.275Z,99.90
2022-09-22T04:34:34.686Z,99.90
2022-09-22T04:37:02.060Z,99.90
2022-09-22T04:39:29.317Z,99.90
2022-09-22T04:41:56.624Z,99.90
2022-09-22T04:44:23.909Z,99.90
2022-09-22T04:46:51.287Z,99.90
2022-09-22T04:49:19.114Z,99.90
2022-09-22T04:51:46.434Z,99.90
2022-09-22T04:54:16.961Z,99.90
2022-09-22T04:56:44.481Z,99.90
2022-09-22T04:59:12.057Z,99.90
2022-09-22T05:01:39.582Z,99.90
2022-09-22T05:04:06.846Z,99.90
2022-09-22T05:06:34.118Z,99.90
2022-09-22T05:09:02.920Z,99.90
2022-09-22T05:11:30.361Z,99.90
2022-09-22T05:13:58.787Z,99.90
2022-09-22T05:16:26.778Z,99.90
2022-09-22T05:18:54.075Z,99.90
2022-09-22T05:21:21.447Z,99.90
2022-09-22T05:23:48.687Z,99.90
2022-09-22T05:26:16.176Z,99.90
2022-09-22T05:28:43.409Z,99.90
2022-09-22T05:31:10.710Z,99.90
2022-09-22T05:33:38.098Z,99.90
2022-09-22T05:36:05.599Z,99.90
2022-09-22T05:38:32.848Z,99.90
2022-09-22T05:41:00.225Z,99.90
2022-09-22T05:43:27.526Z,99.90
2022-09-22T05:45:54.839Z,99.90
2022-09-22T05:48:22.118Z,99.90
2022-09-22T05:50:49.448Z,99.90
2022-09-22T05:53:17.234Z,99.90
2022-09-22T05:55:44.545Z,99.90
2022-09-22T05:58:12.905Z,99.90
2022-09-22T06:00:42.082Z,99.90
2022-09-22T06:03:09.583Z,99.90
2022-09-22T06:05:39.514Z,99.90
2022-09-22T06:08:07.255Z,99.90
2022-09-22T06:10:36.434Z,99.90
2022-09-22T06:13:05.829Z,99.90
2022-09-22T06:15:36.573Z,99.90
2022-09-22T06:18:07.457Z,99.90
2022-09-22T06:20:35.942Z,99.90
2022-09-22T06:23:03.704Z,99.90
2022-09-22T06:25:31.382Z,99.90
2022-09-22T06:28:05.081Z,99.90
2022-09-22T06:30:34.030Z,99.90
2022-09-22T06:33:01.484Z,99.90
2022-09-22T06:35:36.786Z,99.90
2022-09-22T06:38:06.521Z,99.90
2022-09-22T06:40:37.683Z,99.90
2022-09-22T06:43:13.015Z,99.90
2022-09-22T06:45:40.852Z,99.90
2022-09-22T06:48:10.649Z,99.90
2022-09-22T06:50:38.909Z,99.90
2022-09-22T06:53:07.929Z,99.90
2022-09-22T06:55:39.961Z,99.90
2022-09-22T06:58:07.249Z,99.90
2022-09-22T07:00:34.549Z,99.90
2022-09-22T07:03:08.875Z,99.90
2022-09-22T07:05:39.697Z,99.90
2022-09-22T07:08:09.087Z,99.90
2022-09-22T07:10:39.126Z,99.90
2022-09-22T07:13:06.740Z,99.90
2022-09-22T07:15:35.701Z,99.90
2022-09-22T07:18:04.545Z,99.90
2022-09-22T07:20:33.757Z,99.90
2022-09-22T07:23:01.134Z,99.90
2022-09-22T07:25:29.488Z,99.90
2022-09-22T07:28:05.223Z,99.90
2022-09-22T07:30:34.317Z,99.90
2022-09-22T07:33:01.900Z,99.90
2022-09-22T07:35:29.226Z,99.90
2022-09-22T07:37:57.116Z,99.90
2022-09-22T07:40:24.439Z,99.90
2022-09-22T07:42:51.832Z,99.90
2022-09-22T07:45:19.101Z,99.90
2022-09-22T07:48:04.777Z,99.90
2022-09-22T07:50:32.059Z,99.90
2022-09-22T07:52:59.445Z,99.90
2022-09-22T07:55:26.776Z,99.90
2022-09-22T07:57:58.419Z,99.90
2022-09-22T08:00:27.869Z,99.90
2022-09-22T08:02:57.785Z,99.90
2022-09-22T08:05:26.776Z,99.90
2022-09-22T08:07:58.600Z,99.90
2022-09-22T08:10:26.610Z,99.90
2022-09-22T08:12:55.223Z,99.90
2022-09-22T08:15:26.973Z,99.90
2022-09-22T08:17:58.434Z,99.90
2022-09-22T08:20:29.184Z,99.90
2022-09-22T08:23:05.830Z,99.90
2022-09-22T08:25:33.115Z,99.90
2022-09-22T08:28:03.474Z,99.90
2022-09-22T08:30:30.917Z,99.90
2022-09-22T08:33:00.807Z,99.90
2022-09-22T08:35:28.072Z,99.90
2022-09-22T08:37:55.368Z,99.90
2022-09-22T08:40:23.910Z,99.90
2022-09-22T08:42:54.614Z,99.90
2022-09-22T08:45:33.290Z,99.90
2022-09-22T08:48:25.734Z,99.90
2022-09-22T08:51:16.987Z,99.90
2022-09-22T08:53:49.802Z,99.90
2022-09-22T08:56:37.070Z,99.90
2022-09-22T08:59:16.651Z,99.90
2022-09-22T09:02:08.759Z,99.90
2022-09-22T09:04:50.636Z,99.90
2022-09-22T09:07:27.173Z,99.90
2022-09-22T09:10:22.469Z,99.90
2022-09-22T09:12:59.243Z,99.90
2022-09-22T09:15:43.829Z,99.90
2022-09-22T09:18:16.345Z,99.90
2022-09-22T09:20:46.845Z,99.90
2022-09-22T09:26:23.350Z,99.90
2022-09-22T09:29:04.299Z,99.90
2022-09-22T09:31:42.179Z,99.90
2022-09-22T09:34:14.896Z,99.90
2022-09-22T09:36:45.788Z,99.90
2022-09-22T09:39:33.702Z,99.90
2022-09-22T09:42:06.902Z,99.90
2022-09-22T09:44:40.165Z,99.90
2022-09-22T09:47:36.718Z,99.90
2022-09-22T09:50:04.693Z,99.90
2022-09-22T09:52:33.686Z,99.90
2022-09-22T09:55:01.576Z,99.90
2022-09-22T09:57:30.139Z,99.90
2022-09-22T10:00:32.071Z,99.90
2022-09-22T10:03:24.795Z,99.90
2022-09-22T10:06:08.346Z,99.90
2022-09-22T10:08:45.144Z,99.90
2022-09-22T10:11:15.181Z,99.90
2022-09-22T10:13:44.117Z,99.90
2022-09-22T10:16:30.923Z,99.90
2022-09-22T10:19:21.921Z,99.90
2022-09-22T10:21:49.654Z,99.90
2022-09-22T10:24:29.995Z,99.90
2022-09-22T10:26:57.658Z,99.90
2022-09-22T10:29:25.884Z,99.90
2022-09-22T10:32:13.817Z,99.90
2022-09-22T10:34:51.899Z,99.90
2022-09-22T10:37:27.097Z,99.90
2022-09-22T10:40:01.966Z,99.90
2022-09-22T10:42:48.276Z,99.90
2022-09-22T10:45:19.526Z,99.90
2022-09-22T10:48:00.409Z,99.90
2022-09-22T10:51:10.045Z,99.90
2022-09-22T10:53:55.590Z,99.90
2022-09-22T10:56:39.894Z,99.90
2022-09-22T10:59:13.086Z,99.90
2022-09-22T11:01:43.469Z,99.90
2022-09-22T11:04:52.257Z,99.90
2022-09-22T11:07:53.376Z,99.90
2022-09-22T11:10:41.965Z,99.90
2022-09-22T11:13:12.264Z,99.90
2022-09-22T11:15:54.394Z,99.90
2022-09-22T11:18:49.449Z,99.90
2022-09-22T11:21:50.947Z,99.90
2022-09-22T11:24:38.325Z,99.90
2022-09-22T11:27:15.452Z,99.90
2022-09-22T11:29:57.945Z,98.70
2022-09-22T11:32:34.328Z,99.30
2022-09-22T11:35:28.128Z,99.90
2022-09-22T11:38:27.912Z,99.90
2022-09-22T11:41:26.019Z,97.40
2022-09-22T11:43:59.101Z,97.80
2022-09-22T11:47:01.171Z,97.00
2022-09-22T11:49:49.572Z,95.80
2022-09-22T11:52:27.754Z,96.50
2022-09-22T11:55:06.725Z,96.50
2022-09-22T11:57:38.248Z,96.90
2022-09-22T12:00:17.450Z,98.50
2022-09-22T12:03:01.833Z,99.90
2022-09-22T12:05:42.206Z,99.20
2022-09-22T12:08:17.242Z,99.90
2022-09-22T12:10:45.689Z,99.90
2022-09-22T12:13:31.202Z,97.10
2022-09-22T12:16:25.242Z,96.50
2022-09-22T12:19:21.916Z,94.40
2022-09-22T12:22:05.219Z,91.70
2022-09-22T12:24:33.374Z,90.40
2022-09-22T12:27:11.522Z,91.50
2022-09-22T12:29:39.056Z,92.30
2022-09-22T12:32:06.579Z,92.40
2022-09-22T12:34:41.631Z,91.60
2022-09-22T12:37:31.210Z,92.10
2022-09-22T12:40:23.686Z,90.70
2022-09-22T12:42:53.692Z,90.70
2022-09-22T12:45:37.292Z,89.50
2022-09-22T12:48:19.053Z,88.10
2022-09-22T12:50:46.510Z,85.80
2022-09-22T12:53:22.903Z,83.00
2022-09-22T12:55:51.545Z,76.30
2022-09-22T12:58:22.335Z,74.60
2022-09-22T13:00:54.654Z,69.40
2022-09-22T13:03:24.970Z,67.60
2022-09-22T13:05:53.416Z,61.20
2022-09-22T13:08:23.617Z,59.90
2022-09-22T13:10:54.555Z,57.90
2022-09-22T13:13:31.124Z,57.80
2022-09-22T13:16:01.809Z,58.30
2022-09-22T13:18:34.912Z,55.00
2022-09-22T13:21:26.082Z,53.10
2022-09-22T13:23:59.123Z,54.70
2022-09-22T13:26:38.409Z,52.50
2022-09-22T13:29:12.155Z,52.60
2022-09-22T13:31:52.987Z,51.00
2022-09-22T13:34:32.415Z,51.40
2022-09-22T13:37:13.676Z,50.10
2022-09-22T13:39:47.885Z,50.40
2022-09-22T13:42:25.015Z,50.70
2022-09-22T13:45:13.766Z,49.40
2022-09-22T13:47:43.877Z,48.30
2022-09-22T13:50:21.664Z,50.20
2022-09-22T13:52:54.117Z,51.80
2022-09-22T13:55:25.980Z,52.40
2022-09-22T13:57:56.488Z,50.80
2022-09-22T14:00:31.456Z,50.20
2022-09-22T14:03:01.890Z,48.20
2022-09-22T14:05:41.343Z,48.40
2022-09-22T14:08:33.987Z,47.90
2022-09-22T14:11:02.280Z,47.30
2022-09-22T14:13:43.208Z,46.70
2022-09-22T14:16:33.858Z,46.60
2022-09-22T14:19:34.196Z,45.10
2022-09-22T14:22:04.342Z,45.40
2022-09-22T14:24:33.943Z,45.20
2022-09-22T14:27:04.503Z,43.80
2022-09-22T14:29:34.647Z,44.80
2022-09-22T14:32:13.238Z,45.10
2022-09-22T14:34:45.740Z,44.20
2022-09-22T14:37:24.931Z,44.40
2022-09-22T14:39:54.231Z,43.00
2022-09-22T14:42:28.471Z,43.50
2022-09-22T14:45:18.559Z,43.60
2022-09-22T14:47:45.924Z,42.80
2022-09-22T14:50:39.861Z,42.80
2022-09-22T14:53:21.955Z,43.40
2022-09-22T14:55:52.794Z,43.40
2022-09-22T14:58:26.023Z,43.10
2022-09-22T15:01:22.611Z,43.40
2022-09-22T15:04:08.233Z,43.30
2022-09-22T15:06:37.391Z,42.80
2022-09-22T15:09:06.273Z,43.40
2022-09-22T15:11:48.945Z,45.20
2022-09-22T15:14:43.986Z,47.20
2022-09-22T15:17:55.791Z,48.50
2022-09-22T15:21:01.280Z,49.10
2022-09-22T15:23:45.469Z,49.00
2022-09-22T15:26:25.585Z,50.50
2022-09-22T15:28:55.086Z,50.70
2022-09-22T15:31:26.930Z,49.90
2022-09-22T15:34:00.469Z,48.80
2022-09-22T15:36:33.065Z,48.40
2022-09-22T15:39:13.386Z,46.90
2022-09-22T15:41:41.994Z,46.20
2022-09-22T15:44:09.493Z,46.20
2022-09-22T15:46:38.404Z,46.30
2022-09-22T15:49:14.556Z,45.90
2022-09-22T15:51:41.857Z,46.10
2022-09-22T15:54:20.266Z,45.90
2022-09-22T15:56:51.102Z,45.70
2022-09-22T15:59:21.866Z,45.70
2022-09-22T16:01:50.163Z,45.80
2022-09-22T16:04:18.013Z,46.00
2022-09-22T16:06:56.609Z,46.40
2022-09-22T16:09:23.806Z,46.40
2022-09-22T16:11:51.234Z,46.60
2022-09-22T16:14:18.760Z,46.50
2022-09-22T16:16:46.024Z,47.30
2022-09-22T16:19:13.399Z,45.80
2022-09-22T16:21:49.064Z,46.30
2022-09-22T16:24:16.402Z,46.40
2022-09-22T16:26:43.631Z,47.10
2022-09-22T16:29:11.496Z,47.30
2022-09-22T16:31:39.498Z,47.90
2022-09-22T16:34:07.635Z,47.60
2022-09-22T16:36:36.592Z,48.50
2022-09-22T16:39:04.544Z,48.70
2022-09-22T16:41:33.387Z,48.70
2022-09-22T16:44:01.817Z,49.50
2022-09-22T16:46:30.971Z,50.10
2022-09-22T16:49:01.025Z,51.00
2022-09-22T16:51:29.061Z,51.50
2022-09-22T16:53:56.675Z,52.20
2022-09-22T16:56:29.457Z,53.00
2022-09-22T16:58:57.533Z,53.60
2022-09-22T17:01:24.953Z,55.10
2022-09-22T17:03:52.680Z,55.70
2022-09-22T17:06:25.414Z,57.30
2022-09-22T17:08:54.394Z,58.60
2022-09-22T17:11:25.489Z,59.90
2022-09-22T17:13:52.933Z,62.00
2022-09-22T17:16:30.231Z,64.10
2022-09-22T17:19:00.005Z,67.00
2022-09-22T17:21:30.184Z,69.20
2022-09-22T17:24:02.656Z,71.80
2022-09-22T17:26:32.704Z,73.20
2022-09-22T17:29:00.317Z,74.80
2022-09-22T17:31:31.253Z,76.50
2022-09-22T17:33:59.922Z,79.00
2022-09-22T17:36:28.991Z,81.10
2022-09-22T17:38:58.199Z,84.80
2022-09-22T17:41:28.552Z,86.60
2022-09-22T17:43:57.469Z,89.70
2022-09-22T17:46:26.049Z,90.90
2022-09-22T17:49:11.938Z,92.30
2022-09-22T17:51:58.992Z,94.10
2022-09-22T17:54:51.364Z,95.90
2022-09-22T17:57:20.287Z,98.30
2022-09-22T17:59:47.689Z,99.90
2022-09-22T18:02:17.154Z,99.90
2022-09-22T18:04:45.493Z,99.90
2022-09-22T18:07:18.313Z,99.90
2022-09-22T18:09:47.545Z,99.90
2022-09-22T18:12:21.655Z,99.90
2022-09-22T18:14:50.460Z,99.90
2022-09-22T18:17:20.575Z,99.90
2022-09-22T18:19:47.971Z,99.90
2022-09-22T18:22:21.121Z,99.90
2022-09-22T18:24:49.970Z,99.90
2022-09-22T18:27:19.678Z,99.90
2022-09-22T18:29:50.052Z,99.90
2022-09-22T18:32:20.163Z,99.90
2022-09-22T18:34:48.118Z,99.90
2022-09-22T18:37:15.883Z,99.90
2022-09-22T18:39:45.690Z,99.90
2022-09-22T18:42:14.108Z,99.90
2022-09-22T18:44:41.837Z,99.90
2022-09-22T18:47:14.669Z,99.90
2022-09-22T18:49:43.145Z,99.90
2022-09-22T18:52:10.386Z,99.90
2022-09-22T18:54:40.115Z,99.90
2022-09-22T18:57:07.466Z,99.90
2022-09-22T18:59:34.753Z,99.90
2022-09-22T19:02:02.030Z,99.90
2022-09-22T19:04:29.312Z,99.90
2022-09-22T19:07:15.873Z,99.90
2022-09-22T19:09:45.047Z,99.90
2022-09-22T19:12:12.705Z,99.90
2022-09-22T19:14:41.984Z,99.90
2022-09-22T19:17:11.513Z,99.90
2022-09-22T19:19:42.378Z,99.90
2022-09-22T19:22:13.171Z,99.90
2022-09-22T19:24:46.295Z,99.90
2022-09-22T19:27:16.213Z,99.90
2022-09-22T19:29:43.381Z,99.90
2022-09-22T19:32:10.712Z,99.90
2022-09-22T19:34:38.155Z,99.90
2022-09-22T19:37:07.062Z,99.90
2022-09-22T19:39:36.794Z,99.90
2022-09-22T19:42:04.577Z,99.90
2022-09-22T19:44:32.625Z,99.90
2022-09-22T19:46:59.966Z,99.90
2022-09-22T19:49:27.264Z,99.90
2022-09-22T19:51:54.538Z,99.90
2022-09-22T19:54:21.777Z,99.90
2022-09-22T19:56:52.735Z,99.90
2022-09-22T19:59:20.152Z,99.90
2022-09-22T20:01:48.549Z,99.90
2022-09-22T20:04:21.298Z,99.90
2022-09-22T20:06:49.061Z,99.90
2022-09-22T20:09:17.248Z,99.90
2022-09-22T20:11:47.617Z,99.90
2022-09-22T20:14:22.708Z,99.90
2022-09-22T20:17:02.862Z,99.90
2022-09-22T20:19:32.937Z,99.90
2022-09-22T20:22:17.681Z,99.90
2022-09-22T20:24:54.143Z,99.90
2022-09-22T20:27:29.788Z,99.90
2022-09-22T20:29:57.867Z,99.90
2022-09-22T20:32:26.890Z,99.90
2022-09-22T20:34:58.102Z,99.90
2022-09-22T20:37:26.644Z,99.90
2022-09-22T20:39:53.800Z,99.90
2022-09-22T20:42:21.068Z,99.90
2022-09-22T20:44:49.256Z,99.90
2022-09-22T20:47:19.745Z,99.90
2022-09-22T20:49:51.591Z,99.90
2022-09-22T20:52:22.801Z,99.90
2022-09-22T20:54:50.144Z,99.90
2022-09-22T20:57:17.723Z,99.90
2022-09-22T20:59:46.102Z,99.90
2022-09-22T21:02:15.040Z,99.90
2022-09-22T21:04:42.602Z,99.90
2022-09-22T21:07:11.562Z,99.90
2022-09-22T21:09:57.743Z,99.90
2022-09-22T21:12:30.682Z,99.90
2022-09-22T21:14:59.039Z,99.90
2022-09-22T21:17:31.259Z,99.90
2022-09-22T21:19:58.682Z,99.90
2022-09-22T21:22:28.612Z,99.90
2022-09-22T21:24:56.783Z,99.90
2022-09-22T21:27:25.245Z,99.90
2022-09-22T21:29:53.296Z,99.90
2022-09-22T21:32:20.872Z,99.90
2022-09-22T21:34:48.248Z,99.90
2022-09-22T21:37:15.665Z,99.90
2022-09-22T21:39:43.894Z,99.90
2022-09-22T21:42:11.107Z,99.90
2022-09-22T21:44:39.260Z,99.90
2022-09-22T21:47:06.586Z,99.90
2022-09-22T21:49:33.820Z,99.90
2022-09-22T21:52:01.466Z,99.90
2022-09-22T21:54:28.759Z,99.90
2022-09-22T21:56:56.801Z,99.90
2022-09-22T21:59:23.993Z,99.90
2022-09-22T22:01:51.360Z,99.90
2022-09-22T22:04:18.958Z,99.90
2022-09-22T22:06:46.737Z,99.90
2022-09-22T22:09:15.636Z,99.90
2022-09-22T22:11:53.464Z,99.90
2022-09-22T22:14:22.409Z,99.90
2022-09-22T22:16:51.880Z,99.90
2022-09-22T22:19:22.055Z,99.90
2022-09-22T22:21:51.259Z,99.90
2022-09-22T22:24:41.033Z,99.90
2022-09-22T22:27:10.799Z,99.90
2022-09-22T22:29:39.104Z,99.90
2022-09-22T22:32:08.221Z,99.90
2022-09-22T22:34:35.623Z,99.90
2022-09-22T22:37:04.747Z,99.90
2022-09-22T22:39:32.709Z,99.90
2022-09-22T22:42:00.124Z,99.90
2022-09-22T22:44:27.403Z,99.90
2022-09-22T22:46:54.998Z,99.90
2022-09-22T22:49:22.972Z,99.90
2022-09-22T22:51:52.443Z,99.90
2022-09-22T22:54:19.682Z,99.90
2022-09-22T22:56:50.983Z,99.90
2022-09-22T22:59:19.738Z,99.90
2022-09-22T23:01:47.176Z,99.90
2022-09-22T23:04:16.843Z,99.90
2022-09-22T23:06:44.559Z,99.90
2022-09-22T23:09:15.249Z,99.90
2022-09-22T23:11:43.641Z,99.90
2022-09-22T23:14:12.962Z,99.90
2022-09-22T23:16:45.846Z,99.90
2022-09-22T23:19:16.207Z,99.90
2022-09-22T23:21:45.114Z,99.90
2022-09-22T23:24:17.204Z,99.90
2022-09-22T23:26:44.991Z,99.90
2022-09-22T23:29:12.506Z,99.90
2022-09-22T23:31:39.865Z,99.90
2022-09-22T23:34:07.076Z,99.90
2022-09-22T23:36:34.714Z,99.90
2022-09-22T23:39:04.157Z,99.90
2022-09-22T23:41:33.639Z,99.90
2022-09-22T23:44:01.003Z,99.90
2022-09-22T23:46:28.508Z,99.90
2022-09-22T23:48:55.899Z,99.90
2022-09-22T23:51:24.260Z,99.90
2022-09-22T23:53:51.943Z,99.90
2022-09-22T23:56:19.742Z,99.90
2022-09-22T23:58:47.126Z,99.90
